Time;durP1;ratioP1;P1;durP2;ratioP2;P2;SDS_P1;SDS_P2;PMS_P1;PMS_P2;Temp;Humidity;BMP_temperature;BMP_pressure;BME280_temperature;BME280_humidity;BME280_pressure;Samples;Min_cycle;Max_cycle;Signal;HPM_P1;HPM_P2
2023/06/16 00:00:24;;;;;;;5.37;4.33;;;13.90;99.90;;;;;;488047;243;28831;-76
2023/06/16 00:02:24;;;;;;;5.10;4.50;;;13.80;99.90;;;;;;488115;243;28931;-77
2023/06/16 00:04:27;;;;;;;5.60;4.50;;;13.80;99.90;;;;;;488075;243;28851;-76
2023/06/16 00:06:30;;;;;;;5.63;4.70;;;13.80;99.90;;;;;;488016;243;28945;-76
2023/06/16 00:08:31;;;;;;;6.63;4.40;;;13.70;99.90;;;;;;488083;243;28863;-77
2023/06/16 00:10:32;;;;;;;4.53;4.17;;;13.70;99.90;;;;;;488051;243;28811;-76
2023/06/16 00:12:33;;;;;;;6.00;4.50;;;13.70;99.90;;;;;;488049;243;28926;-76
2023/06/16 00:14:35;;;;;;;5.93;4.43;;;13.70;99.90;;;;;;488074;243;28911;-77
2023/06/16 00:16:36;;;;;;;4.90;4.27;;;13.70;99.90;;;;;;488078;243;29142;-76
2023/06/16 00:18:40;;;;;;;6.00;4.83;;;13.60;99.90;;;;;;488097;243;28882;-77
2023/06/16 00:20:38;;;;;;;5.00;4.60;;;13.60;99.90;;;;;;487776;243;29322;-76
2023/06/16 00:22:40;;;;;;;6.30;5.30;;;13.60;99.90;;;;;;488067;243;29388;-76
2023/06/16 00:24:41;;;;;;;5.70;4.43;;;13.60;99.90;;;;;;488058;243;29208;-76
2023/06/16 00:26:42;;;;;;;4.63;4.23;;;13.60;99.90;;;;;;488101;243;28914;-76
2023/06/16 00:28:43;;;;;;;4.73;4.17;;;13.60;99.90;;;;;;488095;243;28847;-80
2023/06/16 00:30:45;;;;;;;6.90;4.80;;;13.50;99.90;;;;;;488061;243;28867;-76
2023/06/16 00:32:46;;;;;;;7.63;4.90;;;13.50;99.90;;;;;;488069;243;29125;-76
2023/06/16 00:34:47;;;;;;;4.90;4.40;;;13.50;99.90;;;;;;488059;243;28808;-76
2023/06/16 00:36:48;;;;;;;7.03;4.40;;;13.40;99.90;;;;;;488080;243;28948;-77
2023/06/16 00:38:50;;;;;;;5.47;4.50;;;13.40;99.90;;;;;;488084;243;28956;-76
2023/06/16 00:40:51;;;;;;;5.70;4.80;;;13.40;99.90;;;;;;488081;243;28503;-77
2023/06/16 00:42:53;;;;;;;4.93;4.43;;;13.30;99.90;;;;;;488121;243;28655;-76
2023/06/16 00:44:53;;;;;;;5.70;4.33;;;13.30;99.90;;;;;;488004;243;29285;-76
2023/06/16 00:46:55;;;;;;;5.40;4.50;;;13.20;99.90;;;;;;488112;243;29381;-76
2023/06/16 00:48:56;;;;;;;5.67;5.10;;;13.20;99.90;;;;;;488136;243;29008;-76
2023/06/16 00:50:57;;;;;;;6.90;5.40;;;13.10;99.90;;;;;;488119;243;29290;-76
2023/06/16 00:52:58;;;;;;;4.67;4.27;;;13.10;99.90;;;;;;488141;243;28509;-77
2023/06/16 00:55:00;;;;;;;4.90;4.40;;;13.00;99.90;;;;;;488131;243;28807;-76
2023/06/16 00:57:01;;;;;;;4.93;4.43;;;13.10;99.90;;;;;;488116;243;28432;-76
2023/06/16 00:59:02;;;;;;;5.20;4.70;;;13.00;99.90;;;;;;488120;243;28413;-76
2023/06/16 01:01:04;;;;;;;8.73;5.30;;;13.00;99.90;;;;;;488091;243;28490;-76
2023/06/16 01:03:05;;;;;;;4.60;4.20;;;12.90;99.90;;;;;;488076;243;28440;-76
2023/06/16 01:05:06;;;;;;;5.23;4.73;;;13.00;99.90;;;;;;488076;243;28485;-76
2023/06/16 01:07:09;;;;;;;6.93;4.37;;;13.00;99.90;;;;;;488057;243;28537;-76
2023/06/16 01:09:08;;;;;;;6.73;5.10;;;13.00;99.90;;;;;;487950;243;28364;-77
2023/06/16 01:11:10;;;;;;;5.67;5.03;;;13.00;99.90;;;;;;488069;243;29321;-76
2023/06/16 01:13:11;;;;;;;6.10;5.07;;;12.90;99.90;;;;;;488083;243;28985;-76
2023/06/16 01:15:12;;;;;;;4.70;4.30;;;13.00;99.90;;;;;;488046;243;28949;-76
2023/06/16 01:17:15;;;;;;;4.77;4.37;;;12.90;99.90;;;;;;488086;243;28488;-76
2023/06/16 01:19:17;;;;;;;5.70;4.40;;;12.80;99.90;;;;;;488008;243;28303;-76
2023/06/16 01:21:16;;;;;;;6.37;4.70;;;12.80;99.90;;;;;;487935;243;28316;-76
2023/06/16 01:23:17;;;;;;;5.30;4.80;;;12.80;99.90;;;;;;488091;243;28268;-76
2023/06/16 01:25:22;;;;;;;6.00;4.70;;;12.80;99.90;;;;;;488101;243;28341;-76
2023/06/16 01:27:21;;;;;;;4.80;4.30;;;12.80;99.90;;;;;;487815;243;28221;-76
2023/06/16 01:29:21;;;;;;;6.27;5.40;;;12.80;99.90;;;;;;487921;243;28404;-75
2023/06/16 01:31:22;;;;;;;5.30;4.80;;;12.80;99.90;;;;;;488081;243;28386;-76
2023/06/16 01:33:23;;;;;;;5.10;4.70;;;12.80;99.90;;;;;;488101;243;28431;-76
2023/06/16 01:35:25;;;;;;;6.43;4.50;;;12.70;99.90;;;;;;488085;243;28665;-76
2023/06/16 01:37:26;;;;;;;5.90;4.40;;;12.70;99.90;;;;;;488091;243;29306;-76
2023/06/16 01:39:27;;;;;;;8.30;4.70;;;12.60;99.90;;;;;;488117;243;28850;-76
2023/06/16 01:41:28;;;;;;;5.37;4.87;;;12.60;99.90;;;;;;488120;243;28803;-76
2023/06/16 01:43:30;;;;;;;8.17;5.23;;;12.60;99.90;;;;;;488108;243;28256;-76
2023/06/16 01:45:31;;;;;;;4.50;4.10;;;12.60;99.90;;;;;;488113;243;28254;-76
2023/06/16 01:47:34;;;;;;;4.93;4.50;;;12.60;99.90;;;;;;488127;243;28426;-75
2023/06/16 01:49:33;;;;;;;7.47;5.10;;;12.60;99.90;;;;;;487957;243;28296;-76
2023/06/16 01:51:35;;;;;;;5.23;4.73;;;12.50;99.90;;;;;;488115;243;28240;-76
2023/06/16 01:53:36;;;;;;;5.73;4.80;;;12.40;99.90;;;;;;488146;243;28316;-75
2023/06/16 01:55:37;;;;;;;5.47;4.60;;;12.40;99.90;;;;;;488140;243;28280;-76
2023/06/16 01:57:38;;;;;;;6.90;5.33;;;12.30;99.90;;;;;;488130;243;28218;-76
2023/06/16 01:59:40;;;;;;;6.00;5.10;;;12.30;99.90;;;;;;488146;243;28356;-76
2023/06/16 02:01:41;;;;;;;6.13;4.80;;;12.30;99.90;;;;;;488130;243;28796;-76
2023/06/16 02:03:42;;;;;;;5.20;4.67;;;12.30;99.90;;;;;;488118;243;28710;-76
2023/06/16 02:05:43;;;;;;;5.97;5.03;;;12.20;99.90;;;;;;488107;243;28732;-76
2023/06/16 02:07:45;;;;;;;5.23;4.73;;;12.20;99.90;;;;;;488090;243;28336;-76
2023/06/16 02:09:46;;;;;;;6.80;5.67;;;12.20;99.90;;;;;;488067;243;28787;-76
2023/06/16 02:11:47;;;;;;;6.03;5.13;;;12.10;99.90;;;;;;488097;243;28362;-76
2023/06/16 02:13:48;;;;;;;6.80;5.23;;;12.00;99.90;;;;;;488089;243;28342;-77
2023/06/16 02:15:50;;;;;;;7.03;5.03;;;12.10;99.90;;;;;;488088;243;28182;-76
2023/06/16 02:17:52;;;;;;;7.73;4.70;;;12.00;99.90;;;;;;488087;243;28367;-76
2023/06/16 02:19:52;;;;;;;7.70;5.17;;;12.00;99.90;;;;;;488017;243;28284;-76
2023/06/16 02:21:57;;;;;;;6.43;4.77;;;12.00;99.90;;;;;;488032;242;28214;-75
2023/06/16 02:23:55;;;;;;;6.73;4.90;;;12.00;99.90;;;;;;487791;243;28198;-76
2023/06/16 02:25:56;;;;;;;6.77;4.70;;;12.00;99.90;;;;;;488105;243;29184;-76
2023/06/16 02:27:57;;;;;;;6.00;5.13;;;12.00;99.90;;;;;;488100;243;28679;-76
2023/06/16 02:29:58;;;;;;;5.57;5.00;;;12.00;99.90;;;;;;488088;243;28606;-76
2023/06/16 02:32:00;;;;;;;5.73;4.97;;;12.10;99.90;;;;;;488043;243;28915;-77
2023/06/16 02:34:01;;;;;;;8.03;6.10;;;11.90;99.90;;;;;;488105;243;28220;-76
2023/06/16 02:36:02;;;;;;;5.60;4.97;;;11.90;99.90;;;;;;488105;243;28187;-76
2023/06/16 02:38:04;;;;;;;5.30;4.80;;;11.80;99.90;;;;;;488086;243;28224;-76
2023/06/16 02:40:05;;;;;;;4.83;4.43;;;11.80;99.90;;;;;;488082;243;28252;-76
2023/06/16 02:42:07;;;;;;;5.17;4.67;;;11.80;99.90;;;;;;488061;243;28342;-76
2023/06/16 02:44:07;;;;;;;7.73;5.37;;;11.80;99.90;;;;;;487987;243;28305;-75
2023/06/16 02:46:08;;;;;;;6.73;5.07;;;11.80;99.90;;;;;;488073;243;28868;-76
2023/06/16 02:48:10;;;;;;;5.73;5.03;;;11.90;99.90;;;;;;488100;243;28196;-77
2023/06/16 02:50:11;;;;;;;5.40;4.90;;;11.80;99.90;;;;;;488084;243;28167;-76
2023/06/16 02:52:12;;;;;;;6.47;5.27;;;11.90;99.90;;;;;;488088;243;28721;-76
2023/06/16 02:54:13;;;;;;;9.00;5.20;;;11.90;99.90;;;;;;488066;243;29263;-76
2023/06/16 02:56:15;;;;;;;7.30;5.40;;;11.90;99.90;;;;;;488090;242;28790;-76
2023/06/16 02:58:16;;;;;;;6.47;5.00;;;11.70;99.90;;;;;;488121;243;28227;-76
2023/06/16 03:00:18;;;;;;;5.00;4.60;;;11.70;99.90;;;;;;488109;243;28180;-76
2023/06/16 03:02:18;;;;;;;5.83;5.10;;;11.60;99.90;;;;;;488069;243;28100;-76
2023/06/16 03:04:20;;;;;;;6.30;5.37;;;11.60;99.90;;;;;;488096;243;28035;-76
2023/06/16 03:06:22;;;;;;;5.50;5.00;;;11.60;99.90;;;;;;488025;243;28232;-76
2023/06/16 03:08:22;;;;;;;5.20;4.70;;;11.60;99.90;;;;;;488056;243;28840;-76
2023/06/16 03:10:23;;;;;;;6.40;5.73;;;11.60;99.90;;;;;;488107;243;28830;-76
2023/06/16 03:12:25;;;;;;;5.07;4.63;;;11.60;99.90;;;;;;488083;243;28234;-76
2023/06/16 03:14:26;;;;;;;6.47;5.87;;;11.60;99.90;;;;;;488034;243;29356;-76
2023/06/16 03:16:27;;;;;;;5.17;4.67;;;11.60;99.90;;;;;;488047;243;28783;-75
2023/06/16 03:18:28;;;;;;;5.50;5.00;;;11.50;99.90;;;;;;488072;243;28780;-76
2023/06/16 03:20:30;;;;;;;5.90;5.33;;;11.50;99.90;;;;;;488086;243;28860;-76
2023/06/16 03:22:31;;;;;;;6.30;5.30;;;11.40;99.90;;;;;;488070;243;28116;-76
2023/06/16 03:24:33;;;;;;;4.90;4.47;;;11.40;99.90;;;;;;488067;243;28298;-75
2023/06/16 03:26:35;;;;;;;5.70;5.10;;;11.40;99.90;;;;;;488028;243;28931;-76
2023/06/16 03:28:35;;;;;;;6.23;5.20;;;11.40;99.90;;;;;;488012;243;28502;-75
2023/06/16 03:30:36;;;;;;;6.57;5.17;;;11.50;99.90;;;;;;488083;243;29026;-76
2023/06/16 03:32:38;;;;;;;6.53;5.40;;;11.50;99.90;;;;;;488066;243;28578;-76
2023/06/16 03:34:38;;;;;;;7.03;5.40;;;11.40;99.90;;;;;;488074;243;28390;-75
2023/06/16 03:36:40;;;;;;;6.13;4.90;;;11.50;99.90;;;;;;488065;243;28852;-76
2023/06/16 03:38:41;;;;;;;5.90;4.60;;;11.40;99.90;;;;;;488046;243;29598;-76
2023/06/16 03:40:42;;;;;;;6.60;5.70;;;11.40;99.90;;;;;;488047;243;28809;-76
2023/06/16 03:42:43;;;;;;;6.23;5.07;;;11.40;99.90;;;;;;488066;243;28571;-76
2023/06/16 03:44:45;;;;;;;5.80;5.20;;;11.50;99.90;;;;;;488056;243;28656;-76
2023/06/16 03:46:46;;;;;;;4.70;4.20;;;11.50;99.90;;;;;;488066;243;29188;-75
2023/06/16 03:48:47;;;;;;;8.77;5.20;;;11.50;99.90;;;;;;488023;243;28501;-76
2023/06/16 03:50:49;;;;;;;5.17;4.67;;;11.60;99.90;;;;;;488056;243;28409;-75
2023/06/16 03:52:51;;;;;;;5.93;4.87;;;11.60;99.90;;;;;;488033;243;28360;-77
2023/06/16 03:54:51;;;;;;;6.00;5.13;;;11.60;99.90;;;;;;487973;243;28056;-76
2023/06/16 03:56:52;;;;;;;5.43;4.87;;;11.70;99.90;;;;;;488007;243;28343;-76
2023/06/16 03:58:55;;;;;;;6.23;5.20;;;;;;;;;;487988;243;28292;-75
2023/06/16 04:00:56;;;;;;;7.70;5.77;;;11.60;99.90;;;;;;488078;243;26640;-76
2023/06/16 04:02:58;;;;;;;5.90;4.93;;;11.60;99.90;;;;;;488075;243;28058;-76
2023/06/16 04:05:00;;;;;;;7.43;5.47;;;11.70;99.90;;;;;;487958;243;28079;-76
2023/06/16 04:07:01;;;;;;;5.30;4.80;;;;;;;;;;487929;243;28532;-76
2023/06/16 04:09:02;;;;;;;7.53;5.60;;;11.70;99.90;;;;;;487982;243;27630;-76
2023/06/16 04:11:03;;;;;;;5.67;4.97;;;11.70;99.90;;;;;;488104;243;28811;-76
2023/06/16 04:13:05;;;;;;;5.50;5.00;;;11.70;99.90;;;;;;488072;243;28374;-76
2023/06/16 04:15:06;;;;;;;5.67;5.17;;;11.70;99.90;;;;;;488071;243;28128;-76
2023/06/16 04:17:07;;;;;;;5.57;5.00;;;11.70;99.90;;;;;;488080;243;28315;-76
2023/06/16 04:19:10;;;;;;;10.50;5.90;;;;;;;;;;488083;243;28860;-76
2023/06/16 04:21:11;;;;;;;5.40;4.90;;;11.60;99.90;;;;;;488112;243;26742;-77
2023/06/16 04:23:12;;;;;;;6.07;5.37;;;11.80;99.90;;;;;;488074;243;28046;-76
2023/06/16 04:25:13;;;;;;;5.43;4.93;;;11.90;99.90;;;;;;488042;243;28267;-76
2023/06/16 04:27:15;;;;;;;5.20;4.70;;;11.90;99.90;;;;;;488076;243;28152;-76
2023/06/16 04:29:17;;;;;;;5.63;4.73;;;12.00;99.90;;;;;;488077;243;28385;-76
2023/06/16 04:31:19;;;;;;;4.70;4.30;;;12.10;99.90;;;;;;488036;243;28373;-76
2023/06/16 04:33:22;;;;;;;5.33;4.53;;;12.10;99.90;;;;;;487905;243;28215;-76
2023/06/16 04:35:21;;;;;;;6.87;5.83;;;12.20;99.90;;;;;;487754;243;28429;-76
2023/06/16 04:37:21;;;;;;;6.17;5.27;;;12.30;99.90;;;;;;487971;243;28166;-76
2023/06/16 04:39:22;;;;;;;6.47;5.63;;;12.40;99.90;;;;;;488064;243;28861;-76
2023/06/16 04:41:23;;;;;;;5.50;5.00;;;12.40;99.90;;;;;;488102;243;28783;-76
2023/06/16 04:43:25;;;;;;;5.40;4.90;;;12.40;99.90;;;;;;488069;243;28776;-76
2023/06/16 04:45:26;;;;;;;5.80;5.00;;;12.40;99.90;;;;;;488065;243;28702;-76
2023/06/16 04:47:27;;;;;;;7.10;5.40;;;12.40;99.90;;;;;;488061;243;28210;-76
2023/06/16 04:49:28;;;;;;;7.73;5.63;;;12.50;99.90;;;;;;488061;243;28296;-76
2023/06/16 04:51:30;;;;;;;4.93;4.43;;;12.60;99.90;;;;;;488089;243;28139;-77
2023/06/16 04:53:32;;;;;;;10.30;5.90;;;12.70;99.90;;;;;;488041;243;28184;-76
2023/06/16 04:55:32;;;;;;;8.87;5.30;;;12.80;99.90;;;;;;488018;243;28283;-77
2023/06/16 04:57:33;;;;;;;4.80;4.40;;;12.80;99.90;;;;;;488057;243;28277;-76
2023/06/16 04:59:35;;;;;;;5.23;4.73;;;12.90;99.90;;;;;;488045;243;28315;-76
2023/06/16 05:01:36;;;;;;;8.80;5.40;;;12.90;99.90;;;;;;488088;243;28462;-77
2023/06/16 05:03:37;;;;;;;6.03;5.43;;;12.90;99.90;;;;;;488056;243;28909;-76
2023/06/16 05:05:38;;;;;;;5.50;5.00;;;13.00;99.90;;;;;;488047;243;28974;-77
2023/06/16 05:07:40;;;;;;;8.07;5.20;;;13.00;99.90;;;;;;488074;243;29295;-76
2023/06/16 05:09:41;;;;;;;6.13;5.20;;;13.10;99.90;;;;;;488040;243;29025;-76
2023/06/16 05:11:42;;;;;;;5.23;4.73;;;13.10;99.90;;;;;;488103;243;28638;-76
2023/06/16 05:13:43;;;;;;;5.30;4.67;;;13.20;99.90;;;;;;488081;243;28599;-76
2023/06/16 05:15:45;;;;;;;8.63;5.50;;;13.20;99.90;;;;;;488087;243;28523;-76
2023/06/16 05:17:46;;;;;;;5.67;5.07;;;13.30;99.90;;;;;;488085;243;28390;-76
2023/06/16 05:19:47;;;;;;;5.90;5.30;;;13.40;99.90;;;;;;488063;243;28564;-77
2023/06/16 05:21:48;;;;;;;6.43;4.70;;;13.40;99.90;;;;;;488056;243;28329;-76
2023/06/16 05:23:50;;;;;;;8.13;5.40;;;13.50;99.90;;;;;;488027;243;28607;-76
2023/06/16 05:25:51;;;;;;;6.30;5.17;;;13.60;99.90;;;;;;488061;243;28852;-76
2023/06/16 05:27:52;;;;;;;5.77;5.17;;;13.60;99.90;;;;;;488094;243;28619;-75
2023/06/16 05:29:53;;;;;;;6.80;5.43;;;13.70;99.90;;;;;;488105;243;29233;-76
2023/06/16 05:31:55;;;;;;;8.50;5.60;;;13.80;99.90;;;;;;488081;243;29390;-76
2023/06/16 05:33:56;;;;;;;7.97;5.10;;;13.80;99.90;;;;;;488059;243;28884;-76
2023/06/16 05:35:57;;;;;;;6.90;5.57;;;13.80;99.90;;;;;;488078;243;29082;-77
2023/06/16 05:37:58;;;;;;;7.10;5.37;;;13.90;99.90;;;;;;488082;243;28830;-76
2023/06/16 05:40:00;;;;;;;5.93;5.37;;;13.90;99.90;;;;;;488114;243;28880;-76
2023/06/16 05:42:01;;;;;;;6.63;5.20;;;13.90;99.90;;;;;;488118;243;28942;-76
2023/06/16 05:44:02;;;;;;;6.20;5.33;;;13.90;99.90;;;;;;488116;243;28815;-76
2023/06/16 05:46:03;;;;;;;5.53;5.03;;;14.00;99.90;;;;;;488095;243;28648;-76
2023/06/16 05:48:05;;;;;;;7.73;5.60;;;14.10;99.90;;;;;;488087;243;28887;-76
2023/06/16 05:50:06;;;;;;;5.63;5.03;;;14.20;99.90;;;;;;488100;243;28946;-77
2023/06/16 05:52:07;;;;;;;6.00;5.40;;;14.20;99.90;;;;;;488118;243;28852;-75
2023/06/16 05:54:08;;;;;;;10.70;5.33;;;14.30;99.90;;;;;;488061;243;29359;-76
2023/06/16 05:56:10;;;;;;;5.43;4.93;;;14.40;99.90;;;;;;488069;243;29474;-76
2023/06/16 05:58:11;;;;;;;5.57;4.87;;;14.50;99.90;;;;;;488080;243;29284;-76
2023/06/16 06:00:12;;;;;;;7.67;5.50;;;14.50;99.90;;;;;;488072;243;28862;-77
2023/06/16 06:02:14;;;;;;;6.90;5.20;;;14.60;99.90;;;;;;488104;243;28810;-75
2023/06/16 06:04:15;;;;;;;6.07;5.20;;;14.70;99.90;;;;;;488090;243;28809;-76
2023/06/16 06:06:16;;;;;;;8.53;5.90;;;14.80;99.90;;;;;;488099;243;28860;-76
2023/06/16 06:08:22;;;;;;;5.97;5.33;;;14.90;99.90;;;;;;488059;243;28850;-76
2023/06/16 06:10:18;;;;;;;5.40;4.90;;;14.90;99.90;;;;;;487613;243;28859;-77
2023/06/16 06:12:20;;;;;;;5.33;4.83;;;15.00;99.90;;;;;;488075;243;29312;-76
2023/06/16 06:14:21;;;;;;;5.27;4.67;;;15.10;99.90;;;;;;488091;243;28925;-77
2023/06/16 06:16:23;;;;;;;5.20;4.70;;;15.20;99.90;;;;;;488095;243;28864;-76
2023/06/16 06:18:23;;;;;;;5.10;4.60;;;15.30;99.90;;;;;;488059;243;29276;-76
2023/06/16 06:20:25;;;;;;;5.80;4.70;;;15.40;99.90;;;;;;488099;243;29302;-76
2023/06/16 06:22:31;;;;;;;5.53;4.60;;;15.50;99.90;;;;;;488072;243;29486;-75
2023/06/16 06:24:27;;;;;;;8.40;5.40;;;15.60;99.90;;;;;;487627;243;29361;-76
2023/06/16 06:26:28;;;;;;;4.90;4.50;;;15.70;99.90;;;;;;488081;243;28888;-76
2023/06/16 06:28:30;;;;;;;6.70;4.90;;;15.80;99.90;;;;;;488083;243;28884;-75
2023/06/16 06:30:31;;;;;;;4.93;4.53;;;15.90;99.90;;;;;;488088;243;28912;-75
2023/06/16 06:32:32;;;;;;;8.23;4.50;;;15.90;99.90;;;;;;488071;243;28926;-75
2023/06/16 06:34:33;;;;;;;4.60;4.20;;;16.10;99.90;;;;;;488084;243;28816;-76
2023/06/16 06:36:36;;;;;;;6.00;3.90;;;16.10;99.90;;;;;;488128;243;28867;-77
2023/06/16 06:38:36;;;;;;;4.80;4.30;;;16.30;99.90;;;;;;488030;243;28809;-75
2023/06/16 06:40:37;;;;;;;6.20;4.97;;;16.40;99.90;;;;;;488105;243;28869;-77
2023/06/16 06:42:38;;;;;;;5.33;4.40;;;16.50;99.90;;;;;;488113;243;28887;-75
2023/06/16 06:44:40;;;;;;;7.10;4.80;;;16.50;99.90;;;;;;488104;243;29303;-76
2023/06/16 06:46:41;;;;;;;5.23;4.73;;;16.60;99.90;;;;;;488102;243;29404;-76
2023/06/16 06:48:42;;;;;;;5.80;4.50;;;16.70;99.90;;;;;;488064;243;29267;-76
2023/06/16 06:50:43;;;;;;;5.90;4.87;;;16.70;99.90;;;;;;488062;243;28878;-75
2023/06/16 06:52:45;;;;;;;5.70;4.80;;;16.70;99.90;;;;;;488043;243;28910;-75
2023/06/16 06:54:46;;;;;;;5.70;4.50;;;16.90;99.90;;;;;;488058;243;28850;-76
2023/06/16 06:56:47;;;;;;;5.57;4.30;;;16.90;99.90;;;;;;488114;243;28942;-76
2023/06/16 06:58:48;;;;;;;6.07;4.73;;;17.00;99.90;;;;;;488070;243;28797;-76
2023/06/16 07:00:50;;;;;;;13.30;5.07;;;17.10;99.90;;;;;;488071;243;28965;-75
2023/06/16 07:02:51;;;;;;;5.50;4.37;;;17.20;99.90;;;;;;488077;243;28821;-75
2023/06/16 07:04:52;;;;;;;5.13;4.63;;;17.30;99.90;;;;;;488096;243;28871;-75
2023/06/16 07:06:54;;;;;;;5.33;4.83;;;17.40;99.90;;;;;;488082;243;28867;-75
2023/06/16 07:08:55;;;;;;;6.80;5.00;;;17.50;99.90;;;;;;488051;243;29250;-76
2023/06/16 07:10:56;;;;;;;5.33;4.80;;;17.60;99.90;;;;;;488069;243;29336;-77
2023/06/16 07:12:57;;;;;;;6.77;4.80;;;17.60;99.90;;;;;;488056;243;29445;-75
2023/06/16 07:14:58;;;;;;;6.70;5.20;;;17.70;99.80;;;;;;488023;243;28846;-76
2023/06/16 07:17:02;;;;;;;6.00;5.07;;;17.80;99.60;;;;;;488096;243;28852;-77
2023/06/16 07:19:02;;;;;;;5.77;4.63;;;18.00;99.30;;;;;;487928;243;28817;-75
2023/06/16 07:21:02;;;;;;;7.23;4.63;;;18.00;98.30;;;;;;488017;243;28872;-76
2023/06/16 07:23:04;;;;;;;11.50;5.27;;;18.30;97.70;;;;;;488064;243;28836;-76
2023/06/16 07:25:05;;;;;;;7.57;4.80;;;18.40;96.60;;;;;;488046;243;28864;-76
2023/06/16 07:27:06;;;;;;;5.83;4.00;;;18.40;96.20;;;;;;488071;243;29280;-77
2023/06/16 07:29:07;;;;;;;8.07;3.80;;;18.50;96.50;;;;;;488076;243;28848;-77
2023/06/16 07:31:09;;;;;;;5.20;3.90;;;18.50;96.40;;;;;;488068;243;28864;-77
2023/06/16 07:33:10;;;;;;;8.90;4.40;;;18.60;96.20;;;;;;488053;243;29284;-75
2023/06/16 07:35:11;;;;;;;8.30;4.63;;;18.70;95.50;;;;;;488037;243;29469;-76
2023/06/16 07:37:13;;;;;;;5.47;4.53;;;18.90;95.90;;;;;;488105;243;29569;-77
2023/06/16 07:39:14;;;;;;;4.50;4.03;;;18.90;95.70;;;;;;488021;243;28815;-75
2023/06/16 07:41:15;;;;;;;4.27;3.87;;;19.00;94.60;;;;;;488083;243;28847;-75
2023/06/16 07:43:16;;;;;;;5.67;4.80;;;19.10;94.80;;;;;;488066;243;28956;-76
2023/06/16 07:45:17;;;;;;;7.47;4.07;;;19.20;92.10;;;;;;488067;243;28852;-76
2023/06/16 07:47:19;;;;;;;6.60;4.53;;;19.20;92.90;;;;;;488068;243;28829;-75
2023/06/16 07:49:20;;;;;;;5.00;4.20;;;19.30;92.70;;;;;;488097;243;28820;-76
2023/06/16 07:51:21;;;;;;;4.50;3.90;;;19.30;93.20;;;;;;488098;243;28875;-75
2023/06/16 07:53:22;;;;;;;7.90;3.90;;;19.40;91.20;;;;;;488057;243;28846;-75
2023/06/16 07:55:24;;;;;;;7.60;3.60;;;19.40;88.00;;;;;;488043;243;28960;-76
2023/06/16 07:57:25;;;;;;;6.60;3.70;;;19.50;88.10;;;;;;488046;243;30237;-75
2023/06/16 07:59:26;;;;;;;5.03;3.80;;;19.60;85.50;;;;;;488036;243;29275;-76
2023/06/16 08:01:27;;;;;;;7.03;4.10;;;19.90;85.90;;;;;;488066;243;29372;-75
2023/06/16 08:03:29;;;;;;;4.00;3.50;;;20.00;86.70;;;;;;488072;243;29288;-76
2023/06/16 08:05:30;;;;;;;4.93;4.43;;;20.00;86.70;;;;;;488047;243;28946;-76
2023/06/16 08:07:31;;;;;;;4.10;3.73;;;20.30;87.20;;;;;;488074;243;28810;-76
2023/06/16 08:09:32;;;;;;;5.40;4.30;;;20.30;86.80;;;;;;488034;243;28923;-75
2023/06/16 08:11:34;;;;;;;9.33;4.50;;;20.10;88.70;;;;;;488103;243;28851;-76
2023/06/16 08:13:35;;;;;;;4.67;4.10;;;20.00;88.90;;;;;;488072;243;28817;-75
2023/06/16 08:15:36;;;;;;;6.87;4.50;;;20.00;89.60;;;;;;488103;243;28842;-76
2023/06/16 08:17:37;;;;;;;4.40;3.90;;;20.00;87.60;;;;;;488075;243;28843;-76
2023/06/16 08:19:39;;;;;;;16.93;4.57;;;20.10;86.60;;;;;;488060;243;28934;-77
2023/06/16 08:21:40;;;;;;;6.23;3.63;;;20.20;86.60;;;;;;488101;243;29356;-76
2023/06/16 08:23:41;;;;;;;4.23;3.83;;;20.10;86.50;;;;;;488102;243;29435;-76
2023/06/16 08:25:42;;;;;;;4.13;3.50;;;20.30;83.80;;;;;;488085;243;29417;-77
2023/06/16 08:27:44;;;;;;;6.33;4.07;;;20.40;84.50;;;;;;488064;243;28902;-77
2023/06/16 08:29:45;;;;;;;9.33;4.80;;;20.40;83.90;;;;;;488030;243;28919;-75
2023/06/16 08:31:46;;;;;;;11.03;4.53;;;20.60;84.30;;;;;;488053;243;28870;-76
2023/06/16 08:33:47;;;;;;;7.50;4.10;;;20.60;83.00;;;;;;488039;243;28958;-76
2023/06/16 08:35:49;;;;;;;6.43;4.13;;;20.60;83.90;;;;;;488037;243;28880;-76
2023/06/16 08:37:50;;;;;;;5.50;3.90;;;20.70;83.30;;;;;;488025;243;28882;-76
2023/06/16 08:39:51;;;;;;;6.03;4.00;;;20.60;82.80;;;;;;488045;243;28891;-77
2023/06/16 08:41:52;;;;;;;4.10;3.70;;;20.70;81.00;;;;;;488034;243;28856;-77
2023/06/16 08:43:54;;;;;;;6.80;4.17;;;20.70;78.30;;;;;;488043;243;28836;-77
2023/06/16 08:45:55;;;;;;;6.73;4.03;;;20.80;79.20;;;;;;488030;243;29333;-76
2023/06/16 08:47:56;;;;;;;9.50;4.40;;;20.80;80.60;;;;;;488046;243;29266;-77
2023/06/16 08:49:58;;;;;;;3.93;3.30;;;20.80;77.10;;;;;;488021;243;29410;-76
2023/06/16 08:51:59;;;;;;;5.60;4.57;;;20.70;78.30;;;;;;488077;243;29553;-76
2023/06/16 08:54:00;;;;;;;7.90;4.60;;;21.00;77.60;;;;;;488089;243;28919;-76
2023/06/16 08:56:02;;;;;;;5.10;4.13;;;21.10;73.40;;;;;;488075;243;28854;-77
2023/06/16 08:58:02;;;;;;;4.90;4.00;;;21.20;72.90;;;;;;487974;243;28788;-76
2023/06/16 09:00:07;;;;;;;3.97;3.57;;;21.20;74.10;;;;;;488031;243;28835;-76
2023/06/16 09:02:05;;;;;;;4.87;4.03;;;21.10;74.20;;;;;;487753;243;28856;-76
2023/06/16 09:04:09;;;;;;;4.73;4.13;;;21.00;75.90;;;;;;488021;243;28863;-77
2023/06/16 09:06:10;;;;;;;8.20;4.67;;;21.10;74.90;;;;;;488014;243;28857;-76
2023/06/16 09:08:11;;;;;;;4.40;4.00;;;21.00;74.40;;;;;;488046;243;28875;-78
2023/06/16 09:10:13;;;;;;;9.00;3.93;;;20.90;76.10;;;;;;488035;243;28906;-76
2023/06/16 09:12:14;;;;;;;4.43;4.03;;;20.90;75.50;;;;;;488042;243;28848;-76
2023/06/16 09:14:16;;;;;;;3.87;3.50;;;21.10;75.30;;;;;;488017;243;28805;-76
2023/06/16 09:16:16;;;;;;;6.17;4.00;;;21.10;73.50;;;;;;487996;243;28863;-75
2023/06/16 09:18:18;;;;;;;7.50;3.53;;;21.10;75.40;;;;;;488016;243;29349;-77
2023/06/16 09:20:19;;;;;;;4.20;3.80;;;21.10;73.40;;;;;;488018;243;29233;-77
2023/06/16 09:22:20;;;;;;;7.90;4.03;;;21.20;75.80;;;;;;488023;243;28874;-77
2023/06/16 09:24:22;;;;;;;6.20;3.97;;;21.30;72.60;;;;;;488021;243;29263;-76
2023/06/16 09:26:24;;;;;;;7.13;4.13;;;21.30;72.40;;;;;;487996;243;29363;-77
2023/06/16 09:28:24;;;;;;;5.13;3.80;;;21.30;71.70;;;;;;487974;243;29388;-75
2023/06/16 09:30:29;;;;;;;5.77;3.90;;;21.20;71.80;;;;;;488051;243;28900;-75
2023/06/16 09:32:26;;;;;;;5.60;4.13;;;21.20;73.80;;;;;;487715;243;28928;-77
2023/06/16 09:34:28;;;;;;;7.37;4.47;;;21.30;71.20;;;;;;486211;243;36224;-76
2023/06/16 09:36:29;;;;;;;4.63;3.80;;;21.40;71.00;;;;;;487973;243;27544;-76
2023/06/16 09:38:30;;;;;;;6.53;3.93;;;21.40;71.20;;;;;;487973;243;28829;-76
2023/06/16 09:40:31;;;;;;;4.87;4.20;;;21.60;72.20;;;;;;488049;243;28809;-76
2023/06/16 09:42:33;;;;;;;4.30;3.90;;;21.60;71.20;;;;;;488029;243;28883;-78
2023/06/16 09:44:34;;;;;;;9.67;3.83;;;21.50;71.80;;;;;;488011;243;28864;-76
2023/06/16 09:46:35;;;;;;;8.47;4.13;;;21.80;72.00;;;;;;488002;243;28845;-76
2023/06/16 09:48:36;;;;;;;4.13;3.70;;;22.00;72.20;;;;;;488018;243;29416;-77
2023/06/16 09:50:38;;;;;;;8.83;4.80;;;22.10;70.80;;;;;;488033;243;29343;-76
2023/06/16 09:52:41;;;;;;;4.60;4.03;;;22.00;73.10;;;;;;488032;243;29336;-77
2023/06/16 09:54:40;;;;;;;5.10;4.50;;;22.00;71.70;;;;;;487901;243;29362;-76
2023/06/16 09:56:41;;;;;;;6.67;4.50;;;22.00;73.10;;;;;;488005;243;28939;-76
2023/06/16 09:58:43;;;;;;;4.87;3.70;;;21.90;71.70;;;;;;488037;243;28938;-76
2023/06/16 10:00:44;;;;;;;5.07;4.20;;;22.00;72.50;;;;;;488094;243;28832;-76
2023/06/16 10:02:45;;;;;;;6.23;3.90;;;22.10;71.80;;;;;;488083;243;28841;-77
2023/06/16 10:04:46;;;;;;;5.33;4.30;;;22.00;71.80;;;;;;488073;243;28916;-76
2023/06/16 10:06:48;;;;;;;6.23;3.90;;;22.10;73.60;;;;;;488067;243;28868;-77
2023/06/16 10:08:49;;;;;;;4.33;3.90;;;22.20;74.20;;;;;;487960;243;28822;-76
2023/06/16 10:10:51;;;;;;;4.63;4.10;;;22.40;73.30;;;;;;488056;243;28900;-76
2023/06/16 10:12:53;;;;;;;5.83;4.60;;;22.40;70.30;;;;;;488059;243;29319;-76
2023/06/16 10:14:53;;;;;;;9.43;4.20;;;22.50;69.90;;;;;;487929;243;29334;-77
2023/06/16 10:16:54;;;;;;;9.23;4.73;;;22.60;70.20;;;;;;488016;243;29479;-76
2023/06/16 10:18:57;;;;;;;5.10;4.00;;;22.70;68.80;;;;;;488013;243;29382;-75
2023/06/16 10:20:56;;;;;;;6.50;3.83;;;22.80;67.80;;;;;;487960;243;28797;-77
2023/06/16 10:22:58;;;;;;;5.77;4.27;;;22.80;68.90;;;;;;488080;243;28937;-78
2023/06/16 10:25:00;;;;;;;7.53;4.40;;;22.90;69.60;;;;;;488048;243;28802;-76
2023/06/16 10:27:00;;;;;;;4.50;4.10;;;23.20;70.50;;;;;;487998;243;28929;-77
2023/06/16 10:29:01;;;;;;;5.17;4.27;;;23.20;68.40;;;;;;488049;243;28808;-76
2023/06/16 10:31:03;;;;;;;5.73;3.93;;;23.20;68.60;;;;;;487982;243;28891;-77